Ieper, Belgium
Current Conditions -  °F | °C
As of 2:25 AM on Wednesday 22 Oct 2014 (Local Time) from EBFN Reporting Station
Broken Clouds Broken Clouds  
Wind Chill: 50°   Ceiling: 4600
Heat Index: 50°   Visibility: 6mi
Dew Point: 37°   Wind: 21mph
Humidity: 62%   Direction: 310°NW
Pressure: 30.09"   Gusts: 36mph
Location:  50.85°N, 2.89°E
Report Text: EBFN 220025Z 31018G31KT 9999 FEW035 BKN046 BKN060 10/03 Q1019 BLU
Loading
Personal Weather Stations






























Interactive Weather Map
Tropical Storm Tracking
New forecast layout! Learn more

10-Day Weather Forecast

Advertisements
Track Severe Weather on mobile